Terminal Aerodrome Forecast
Issued by NWS Melbourne, FL

Home | Current Version | Previous Version | Text Only | Print | Product List | Glossary On
Versions: 1 2 3 4 5 6 7 8 9 10 11 12 13
987
FTUS42 KMLB 060736 AAA
TAFDAB
TAF AMD
KDAB 060736Z 0608/0706 19007KT P6SM OVC150 WS020/21035KT
      TEMPO 0610/0614 OVC010
     FM061500 22015G24KT P6SM VCSH SCT020 BKN040
     FM062200 25010KT P6SM SCT050
     FM070200 27005KT P6SM SCT025=

USA.gov is the U.S. government's official web portal to all federal, state and local government web resources and services.